createdAt,value
2023-04-01T00:01:28.264Z,99.90
2023-04-01T00:03:55.702Z,99.90
2023-04-01T00:06:23.237Z,99.90
2023-04-01T00:08:49.970Z,99.90
2023-04-01T00:11:17.219Z,99.90
2023-04-01T00:13:44.464Z,99.90
2023-04-01T00:16:20.979Z,99.90
2023-04-01T00:18:49.551Z,99.90
2023-04-01T00:21:17.491Z,99.90
2023-04-01T00:23:44.647Z,99.90
2023-04-01T00:26:13.154Z,99.90
2023-04-01T00:28:40.209Z,99.90
2023-04-01T00:31:08.981Z,99.90
2023-04-01T00:33:36.630Z,99.90
2023-04-01T00:36:18.915Z,99.90
2023-04-01T00:38:46.922Z,99.90
2023-04-01T00:41:19.020Z,99.90
2023-04-01T00:43:50.333Z,99.90
2023-04-01T00:46:17.191Z,99.90
2023-04-01T00:48:49.280Z,99.90
2023-04-01T00:51:21.556Z,99.90
2023-04-01T00:53:51.226Z,99.90
2023-04-01T00:56:23.306Z,99.90
2023-04-01T00:58:55.938Z,99.90
2023-04-01T01:01:25.244Z,99.90
2023-04-01T01:03:52.177Z,99.90
2023-04-01T01:06:31.692Z,99.90
2023-04-01T01:09:08.312Z,99.90
2023-04-01T01:11:44.210Z,99.90
2023-04-01T01:14:15.009Z,99.90
2023-04-01T01:16:46.962Z,99.90
2023-04-01T01:19:16.747Z,99.90
2023-04-01T01:21:53.230Z,99.90
2023-04-01T01:24:52.492Z,99.90
2023-04-01T01:27:21.419Z,99.90
2023-04-01T01:30:00.518Z,99.90
2023-04-01T01:32:39.756Z,99.90
2023-04-01T01:35:22.218Z,99.90
2023-04-01T01:37:54.927Z,99.90
2023-04-01T01:40:22.394Z,99.90
2023-04-01T01:42:52.874Z,99.90
2023-04-01T01:45:22.294Z,99.90
2023-04-01T01:47:50.892Z,99.90
2023-04-01T01:50:18.987Z,99.90
2023-04-01T01:52:45.707Z,99.90
2023-04-01T01:55:31.746Z,99.90
2023-04-01T01:58:33.201Z,99.90
2023-04-01T02:01:09.126Z,99.90
2023-04-01T02:03:38.332Z,99.90
2023-04-01T02:06:09.037Z,99.90
2023-04-01T02:08:40.133Z,99.90
2023-04-01T02:11:14.364Z,99.90
2023-04-01T02:14:03.842Z,99.90
2023-04-01T02:16:55.355Z,99.90
2023-04-01T02:19:27.251Z,99.90
2023-04-01T02:22:00.165Z,99.90
2023-04-01T02:24:31.562Z,99.90
2023-04-01T02:26:58.781Z,99.90
2023-04-01T02:29:26.727Z,99.90
2023-04-01T02:31:55.390Z,99.90
2023-04-01T02:34:24.951Z,99.90
2023-04-01T02:36:52.978Z,99.90
2023-04-01T02:39:19.837Z,99.90
2023-04-01T02:41:47.208Z,99.90
2023-04-01T02:44:16.011Z,99.90
2023-04-01T02:46:43.128Z,99.90
2023-04-01T02:49:09.923Z,99.90
2023-04-01T02:51:36.930Z,99.90
2023-04-01T02:54:03.814Z,99.90
2023-04-01T02:56:30.838Z,99.90
2023-04-01T02:58:57.618Z,99.90
2023-04-01T03:01:24.475Z,99.90
2023-04-01T03:03:51.292Z,99.90
2023-04-01T03:06:18.625Z,99.90
2023-04-01T03:08:45.587Z,99.90
2023-04-01T03:11:13.159Z,99.90
2023-04-01T03:13:39.933Z,99.90
2023-04-01T03:16:07.164Z,99.90
2023-04-01T03:18:34.334Z,99.90
2023-04-01T03:21:33.376Z,99.90
2023-04-01T03:24:00.109Z,99.90
2023-04-01T03:26:28.126Z,99.90
2023-04-01T03:28:55.043Z,99.90
2023-04-01T03:31:23.268Z,99.90
2023-04-01T03:33:50.700Z,99.90
2023-04-01T03:36:18.053Z,99.90
2023-04-01T03:38:46.004Z,99.90
2023-04-01T03:41:14.824Z,99.90
2023-04-01T03:43:41.712Z,99.90
2023-04-01T03:46:08.794Z,99.90
2023-04-01T03:48:35.992Z,99.90
2023-04-01T03:51:02.731Z,99.90
2023-04-01T03:53:29.527Z,99.90
2023-04-01T03:55:56.643Z,99.90
2023-04-01T03:58:23.370Z,99.90
2023-04-01T04:00:50.139Z,99.90
2023-04-01T04:03:17.034Z,99.90
2023-04-01T04:05:51.042Z,99.90
2023-04-01T04:08:18.218Z,99.90
2023-04-01T04:10:45.398Z,99.90
2023-04-01T04:13:12.134Z,99.90
2023-04-01T04:15:39.787Z,99.90
2023-04-01T04:18:06.524Z,99.90
2023-04-01T04:20:33.336Z,99.90
2023-04-01T04:23:01.558Z,99.90
2023-04-01T04:25:28.267Z,99.90
2023-04-01T04:27:54.955Z,99.90
2023-04-01T04:30:21.740Z,99.90
2023-04-01T04:32:48.442Z,99.90
2023-04-01T04:35:15.501Z,99.90
2023-04-01T04:37:42.179Z,99.90
2023-04-01T04:40:09.335Z,99.90
2023-04-01T04:42:36.029Z,99.90
2023-04-01T04:45:02.814Z,99.90
2023-04-01T04:47:29.643Z,99.90
2023-04-01T04:49:56.414Z,99.90
2023-04-01T04:52:23.126Z,99.90
2023-04-01T04:54:49.814Z,99.90
2023-04-01T04:57:16.555Z,99.90
2023-04-01T04:59:43.305Z,99.90
2023-04-01T05:02:10.042Z,99.90
2023-04-01T05:04:37.636Z,99.90
2023-04-01T05:07:04.503Z,99.90
2023-04-01T05:09:32.587Z,99.90
2023-04-01T05:11:59.261Z,99.90
2023-04-01T05:14:26.052Z,99.90
2023-04-01T05:16:52.905Z,99.90
2023-04-01T05:19:19.649Z,99.90
2023-04-01T05:21:46.351Z,99.90
2023-04-01T05:24:13.069Z,99.90
2023-04-01T05:26:39.782Z,99.90
2023-04-01T05:29:06.565Z,99.90
2023-04-01T05:31:33.603Z,99.90
2023-04-01T05:34:00.315Z,99.90
2023-04-01T05:36:27.016Z,99.90
2023-04-01T05:38:56.772Z,99.90
2023-04-01T05:41:23.477Z,99.90
2023-04-01T05:43:50.249Z,99.90
2023-04-01T05:46:17.025Z,99.90
2023-04-01T05:48:43.798Z,99.90
2023-04-01T05:51:16.994Z,99.90
2023-04-01T05:53:44.129Z,99.90
2023-04-01T05:56:10.993Z,99.90
2023-04-01T05:58:38.312Z,99.90
2023-04-01T06:01:11.392Z,99.90
2023-04-01T06:03:41.136Z,99.90
2023-04-01T06:06:16.575Z,99.90
2023-04-01T06:08:44.020Z,99.90
2023-04-01T06:11:31.315Z,99.90
2023-04-01T06:14:34.557Z,99.90
2023-04-01T06:17:07.377Z,99.90
2023-04-01T06:20:06.055Z,99.90
2023-04-01T06:22:57.211Z,99.90
2023-04-01T06:25:54.888Z,99.90
2023-04-01T06:28:50.660Z,99.90
2023-04-01T06:31:48.084Z,99.90
2023-04-01T06:34:36.466Z,99.90
2023-04-01T06:37:21.768Z,99.90
2023-04-01T06:40:01.301Z,99.90
2023-04-01T06:43:06.354Z,99.90
2023-04-01T06:45:57.550Z,99.90
2023-04-01T06:48:45.774Z,99.90
2023-04-01T06:51:25.014Z,99.90
2023-04-01T06:54:24.869Z,99.90
2023-04-01T06:56:59.127Z,99.90
2023-04-01T06:59:33.238Z,99.10
2023-04-01T07:02:11.621Z,96.10
2023-04-01T07:04:44.587Z,91.80
2023-04-01T07:07:22.944Z,87.00
2023-04-01T07:09:54.485Z,82.70
2023-04-01T07:12:28.879Z,83.10
2023-04-01T07:14:57.245Z,82.70
2023-04-01T07:17:33.718Z,84.00
2023-04-01T07:20:23.230Z,89.10
2023-04-01T07:22:52.586Z,89.10
2023-04-01T07:25:26.308Z,88.10
2023-04-01T07:28:06.158Z,88.30
2023-04-01T07:30:58.232Z,87.50
2023-04-01T07:33:46.030Z,83.50
2023-04-01T07:36:55.398Z,79.60
2023-04-01T07:39:55.747Z,79.10
2023-04-01T07:42:39.081Z,75.00
2023-04-01T07:45:21.069Z,68.10
2023-04-01T07:48:16.742Z,60.70
2023-04-01T07:51:14.606Z,56.80
2023-04-01T07:53:59.866Z,51.90
2023-04-01T07:56:34.401Z,53.80
2023-04-01T07:59:03.930Z,54.40
2023-04-01T08:01:48.829Z,56.00
2023-04-01T08:04:43.744Z,59.40
2023-04-01T08:07:13.183Z,63.30
2023-04-01T08:10:09.451Z,67.10
2023-04-01T08:12:51.794Z,69.40
2023-04-01T08:15:37.983Z,73.70
2023-04-01T08:18:38.426Z,73.50
2023-04-01T08:21:09.328Z,75.80
2023-04-01T08:23:46.057Z,75.90
2023-04-01T08:26:38.035Z,74.60
2023-04-01T08:29:16.125Z,72.20
2023-04-01T08:31:42.875Z,72.90
2023-04-01T08:34:24.271Z,71.80
2023-04-01T08:37:05.268Z,73.20
2023-04-01T08:39:45.532Z,68.00
2023-04-01T08:42:17.807Z,67.20
2023-04-01T08:45:15.402Z,67.40
2023-04-01T08:47:54.152Z,67.50
2023-04-01T08:50:39.392Z,65.90
2023-04-01T08:53:27.268Z,66.70
2023-04-01T08:56:36.244Z,66.60
2023-04-01T08:59:08.682Z,66.30
2023-04-01T09:02:06.965Z,64.30
2023-04-01T09:05:08.979Z,61.10
2023-04-01T09:07:56.791Z,59.00
2023-04-01T09:10:45.337Z,58.60
2023-04-01T09:13:15.030Z,59.30
2023-04-01T09:16:12.630Z,57.90
2023-04-01T09:19:10.024Z,59.40
2023-04-01T09:22:00.298Z,58.60
2023-04-01T09:24:52.358Z,56.70
2023-04-01T09:27:39.278Z,55.80
2023-04-01T09:30:15.272Z,53.40
2023-04-01T09:33:06.370Z,55.70
2023-04-01T09:35:53.696Z,58.10
2023-04-01T09:38:48.725Z,57.90
2023-04-01T09:41:28.610Z,59.80
2023-04-01T09:44:10.328Z,60.00
2023-04-01T09:46:43.981Z,60.60
2023-04-01T09:49:38.786Z,61.60
2023-04-01T09:52:33.280Z,60.10
2023-04-01T09:55:30.611Z,60.50
2023-04-01T09:58:03.392Z,60.60
2023-04-01T10:00:48.490Z,59.00
2023-04-01T10:03:44.212Z,59.40
2023-04-01T10:06:55.570Z,60.00
2023-04-01T10:09:40.645Z,59.50
2023-04-01T10:12:17.576Z,61.10
2023-04-01T10:15:22.031Z,60.50
2023-04-01T10:18:19.156Z,60.60
2023-04-01T10:21:15.774Z,60.50
2023-04-01T10:24:13.216Z,62.40
2023-04-01T10:27:00.274Z,65.20
2023-04-01T10:29:43.805Z,66.90
2023-04-01T10:32:16.528Z,68.70
2023-04-01T10:34:49.247Z,68.40
2023-04-01T10:37:47.090Z,68.10
2023-04-01T10:40:35.184Z,67.00
2023-04-01T10:43:40.263Z,67.00
2023-04-01T10:46:44.588Z,67.40
2023-04-01T10:49:44.762Z,67.70
2023-04-01T10:52:33.685Z,69.20
2023-04-01T10:55:43.562Z,71.10
2023-04-01T10:58:31.733Z,71.70
2023-04-01T11:01:20.716Z,72.30
2023-04-01T11:04:28.952Z,72.80
2023-04-01T11:07:32.558Z,75.50
2023-04-01T11:10:18.221Z,77.50
2023-04-01T11:12:50.826Z,78.00
2023-04-01T11:15:59.570Z,78.70
2023-04-01T11:18:50.386Z,79.60
2023-04-01T11:21:26.795Z,79.60
2023-04-01T11:24:05.731Z,82.10
2023-04-01T11:26:38.823Z,83.10
2023-04-01T11:29:30.130Z,81.50
2023-04-01T11:32:38.406Z,80.90
2023-04-01T11:35:14.072Z,81.20
2023-04-01T11:38:13.214Z,81.90
2023-04-01T11:41:03.814Z,82.80
2023-04-01T11:44:09.364Z,81.10
2023-04-01T11:47:03.007Z,81.90
2023-04-01T11:49:56.666Z,83.90
2023-04-01T11:52:23.527Z,86.00
2023-04-01T11:55:16.959Z,87.90
2023-04-01T11:57:46.730Z,90.80
2023-04-01T12:00:27.062Z,92.60
2023-04-01T12:03:27.394Z,93.60
2023-04-01T12:06:00.458Z,94.90
2023-04-01T12:08:58.007Z,95.90
2023-04-01T12:11:46.168Z,96.10
2023-04-01T12:14:18.175Z,97.10
2023-04-01T12:17:04.937Z,97.90
2023-04-01T12:20:12.037Z,98.30
2023-04-01T12:22:41.844Z,99.80
2023-04-01T12:25:18.019Z,99.90
2023-04-01T12:27:52.103Z,99.90
2023-04-01T12:30:38.369Z,99.90
2023-04-01T12:33:37.291Z,99.90
2023-04-01T12:36:19.350Z,99.90
2023-04-01T12:39:04.617Z,99.90
2023-04-01T12:41:51.388Z,99.90
2023-04-01T12:44:36.975Z,99.90
2023-04-01T12:47:15.370Z,99.90
2023-04-01T12:50:14.281Z,99.90
2023-04-01T12:53:13.062Z,99.90
2023-04-01T12:55:44.213Z,99.90
2023-04-01T12:58:23.626Z,99.90
2023-04-01T13:01:11.933Z,99.90
2023-04-01T13:03:57.238Z,99.90
2023-04-01T13:06:30.824Z,99.90
2023-04-01T13:09:09.505Z,99.90
2023-04-01T13:12:21.093Z,99.90
2023-04-01T13:15:14.448Z,99.90
2023-04-01T13:18:16.021Z,99.90
2023-04-01T13:20:49.177Z,99.90
2023-04-01T13:23:46.257Z,99.90
2023-04-01T13:26:54.845Z,99.90
2023-04-01T13:29:31.628Z,99.90
2023-04-01T13:32:22.158Z,99.90
2023-04-01T13:35:16.433Z,99.90
2023-04-01T13:38:04.005Z,99.90
2023-04-01T13:40:55.702Z,99.90
2023-04-01T13:43:32.658Z,99.90
2023-04-01T13:46:24.117Z,99.90
2023-04-01T13:49:02.246Z,99.90
2023-04-01T13:51:44.183Z,99.90
2023-04-01T13:54:25.944Z,99.90
2023-04-01T13:57:08.941Z,99.90
2023-04-01T13:59:57.251Z,99.90
2023-04-01T14:02:52.086Z,99.90
2023-04-01T14:05:39.947Z,99.90
2023-04-01T14:08:45.480Z,99.90
2023-04-01T14:11:31.724Z,99.90
2023-04-01T14:14:18.931Z,99.90
2023-04-01T14:17:11.288Z,99.90
2023-04-01T14:20:06.089Z,99.90
2023-04-01T14:23:28.413Z,99.90
2023-04-01T14:26:13.367Z,99.90
2023-04-01T14:29:01.251Z,99.90
2023-04-01T14:31:46.055Z,99.90
2023-04-01T14:34:47.964Z,99.90
2023-04-01T14:37:27.688Z,99.90
2023-04-01T14:40:25.980Z,99.90
2023-04-01T14:43:13.932Z,99.90
2023-04-01T14:45:51.570Z,99.90
2023-04-01T14:48:32.854Z,99.90
2023-04-01T14:51:24.719Z,99.90
2023-04-01T14:54:03.767Z,99.90
2023-04-01T14:56:42.996Z,99.90
2023-04-01T14:59:14.314Z,99.90
2023-04-01T15:01:53.114Z,99.90
2023-04-01T15:04:42.891Z,99.90
2023-04-01T15:07:35.321Z,99.90
2023-04-01T15:10:32.545Z,99.90
2023-04-01T15:13:16.867Z,99.90
2023-04-01T15:15:49.490Z,99.90
2023-04-01T15:18:31.611Z,99.90
2023-04-01T15:21:17.851Z,99.90
2023-04-01T15:24:05.247Z,99.90
2023-04-01T15:26:51.149Z,99.90
2023-04-01T15:29:29.763Z,99.90
2023-04-01T15:32:29.008Z,99.90
2023-04-01T15:35:04.395Z,99.90
2023-04-01T15:37:51.977Z,99.90
2023-04-01T15:40:27.562Z,99.90
2023-04-01T15:43:24.314Z,99.90
2023-04-01T15:46:20.609Z,99.90
2023-04-01T15:49:06.180Z,99.90
2023-04-01T15:51:59.848Z,99.90
2023-04-01T15:55:03.970Z,99.90
2023-04-01T15:57:46.829Z,99.90
2023-04-01T16:00:43.699Z,99.90
2023-04-01T16:03:28.699Z,99.90
2023-04-01T16:05:55.539Z,99.90
2023-04-01T16:08:53.023Z,99.90
2023-04-01T16:11:39.839Z,99.90
2023-04-01T16:14:19.900Z,99.90
2023-04-01T16:17:13.992Z,99.90
2023-04-01T16:19:52.852Z,99.90
2023-04-01T16:22:49.333Z,99.90
2023-04-01T16:25:39.537Z,99.90
2023-04-01T16:28:34.082Z,99.90
2023-04-01T16:31:36.893Z,99.90
2023-04-01T16:34:39.056Z,99.90
2023-04-01T16:37:14.490Z,99.90
2023-04-01T16:40:17.724Z,99.90
2023-04-01T16:43:13.309Z,99.90
2023-04-01T16:45:50.766Z,99.90
2023-04-01T16:48:30.990Z,99.90
2023-04-01T16:51:10.297Z,99.90
2023-04-01T16:53:48.255Z,99.90
2023-04-01T16:56:26.378Z,99.90
2023-04-01T16:58:56.552Z,99.90
2023-04-01T17:01:30.191Z,99.90
2023-04-01T17:04:11.663Z,99.90
2023-04-01T17:07:00.324Z,99.90
2023-04-01T17:09:42.096Z,99.90
2023-04-01T17:12:54.550Z,99.90
2023-04-01T17:15:44.279Z,99.90
2023-04-01T17:18:19.846Z,99.90
2023-04-01T17:21:08.607Z,99.90
2023-04-01T17:23:45.040Z,99.90
2023-04-01T17:26:33.458Z,99.90
2023-04-01T17:29:18.741Z,99.90
2023-04-01T17:32:01.944Z,99.90
2023-04-01T17:34:47.273Z,99.90
2023-04-01T17:37:38.701Z,99.90
2023-04-01T17:40:27.143Z,99.90
2023-04-01T17:43:23.780Z,99.90
2023-04-01T17:45:58.665Z,99.90
2023-04-01T17:48:42.795Z,99.90
2023-04-01T17:51:30.674Z,99.90
2023-04-01T17:54:18.904Z,99.90
2023-04-01T17:57:12.592Z,99.90
2023-04-01T18:00:15.266Z,99.90
2023-04-01T18:03:08.511Z,99.90
2023-04-01T18:05:51.564Z,99.90
2023-04-01T18:08:27.301Z,99.90
2023-04-01T18:10:58.785Z,99.90
2023-04-01T18:13:35.120Z,99.90
2023-04-01T18:16:31.203Z,99.90
2023-04-01T18:19:16.642Z,99.90
2023-04-01T18:21:48.720Z,99.90
2023-04-01T18:24:48.781Z,99.90
2023-04-01T18:27:38.704Z,99.90
2023-04-01T18:30:17.341Z,99.90
2023-04-01T18:32:46.907Z,99.90
2023-04-01T18:35:52.920Z,99.90
2023-04-01T18:38:36.509Z,99.90
2023-04-01T18:41:15.053Z,99.90
2023-04-01T18:43:57.819Z,99.90
2023-04-01T18:47:11.985Z,99.90
2023-04-01T18:49:52.504Z,99.90
2023-04-01T18:52:26.117Z,99.90
2023-04-01T18:55:01.996Z,99.90
2023-04-01T18:57:59.398Z,99.90
2023-04-01T19:00:45.950Z,99.90
2023-04-01T19:03:37.439Z,99.90
2023-04-01T19:06:26.750Z,99.90
2023-04-01T19:08:54.667Z,99.90
2023-04-01T19:11:42.931Z,99.90
2023-04-01T19:14:35.284Z,99.90
2023-04-01T19:17:08.727Z,99.90
2023-04-01T19:19:38.256Z,99.90
2023-04-01T19:22:29.898Z,99.90
2023-04-01T19:25:21.588Z,99.90
2023-04-01T19:27:53.248Z,99.90
2023-04-01T19:30:35.421Z,99.90
2023-04-01T19:33:47.336Z,99.90
2023-04-01T19:36:49.942Z,99.90
2023-04-01T19:39:28.660Z,99.90
2023-04-01T19:42:03.936Z,99.90
2023-04-01T19:44:39.817Z,99.90
2023-04-01T19:47:41.547Z,99.90
2023-04-01T19:50:24.331Z,99.90
2023-04-01T19:52:55.940Z,99.90
2023-04-01T19:55:37.785Z,99.90
2023-04-01T19:58:26.088Z,99.90
2023-04-01T20:01:01.307Z,99.90
2023-04-01T20:03:34.364Z,99.90
2023-04-01T20:06:12.635Z,99.90
2023-04-01T20:08:47.243Z,99.90
2023-04-01T20:11:26.687Z,99.90
2023-04-01T20:14:32.188Z,99.90
2023-04-01T20:17:20.080Z,99.90
2023-04-01T20:20:09.252Z,99.90
2023-04-01T20:22:46.044Z,99.90
2023-04-01T20:25:31.166Z,99.90
2023-04-01T20:28:04.813Z,99.90
2023-04-01T20:30:37.389Z,99.90
2023-04-01T20:33:42.001Z,99.90
2023-04-01T20:36:11.781Z,99.90
2023-04-01T20:38:59.700Z,99.90
2023-04-01T20:41:42.862Z,99.90
2023-04-01T20:44:13.588Z,99.90
2023-04-01T20:46:50.064Z,99.90
2023-04-01T20:49:40.654Z,99.90
2023-04-01T20:52:13.585Z,99.90
2023-04-01T20:54:49.165Z,99.90
2023-04-01T20:57:44.067Z,99.90
2023-04-01T21:00:40.102Z,99.90
2023-04-01T21:03:30.859Z,99.90
2023-04-01T21:06:09.570Z,99.90
2023-04-01T21:09:04.123Z,99.90
2023-04-01T21:11:39.724Z,99.90
2023-04-01T21:14:31.240Z,99.90
2023-04-01T21:17:18.144Z,99.90
2023-04-01T21:20:12.465Z,99.90
2023-04-01T21:22:46.295Z,99.90
2023-04-01T21:25:31.995Z,99.90
2023-04-01T21:28:08.803Z,99.90
2023-04-01T21:31:04.545Z,99.90
2023-04-01T21:33:46.545Z,99.90
2023-04-01T21:36:29.219Z,99.90
2023-04-01T21:39:28.254Z,99.90
2023-04-01T21:42:07.029Z,99.90
2023-04-01T21:44:57.935Z,99.90
2023-04-01T21:47:30.461Z,99.90
2023-04-01T21:50:22.178Z,99.90
2023-04-01T21:53:24.864Z,99.90
2023-04-01T21:56:24.038Z,99.90
2023-04-01T21:59:36.172Z,99.90
2023-04-01T22:02:39.288Z,99.90
2023-04-01T22:05:24.354Z,99.90
2023-04-01T22:08:21.384Z,99.90
2023-04-01T22:10:59.938Z,99.90
2023-04-01T22:13:45.614Z,99.90
2023-04-01T22:16:20.152Z,99.90
2023-04-01T22:19:08.548Z,99.90
2023-04-01T22:21:53.229Z,99.90
2023-04-01T22:24:36.207Z,99.90
2023-04-01T22:27:29.272Z,99.90
2023-04-01T22:30:04.861Z,99.90
2023-04-01T22:32:43.741Z,99.90
2023-04-01T22:35:22.471Z,99.90
2023-04-01T22:38:28.365Z,99.90
2023-04-01T22:40:58.070Z,99.90
2023-04-01T22:43:39.317Z,99.90
2023-04-01T22:46:09.018Z,99.90
2023-04-01T22:48:48.682Z,99.90
2023-04-01T22:51:22.123Z,99.90
2023-04-01T22:54:10.566Z,99.90
2023-04-01T22:56:42.513Z,99.90
2023-04-01T22:59:19.004Z,99.90
2023-04-01T23:02:09.940Z,99.90
2023-04-01T23:04:43.331Z,99.90
2023-04-01T23:07:29.800Z,99.90
2023-04-01T23:09:59.558Z,99.90
2023-04-01T23:12:28.041Z,99.90
2023-04-01T23:15:01.504Z,99.90
2023-04-01T23:17:48.076Z,99.90
2023-04-01T23:20:44.089Z,99.90
2023-04-01T23:23:36.533Z,99.90
2023-04-01T23:26:24.152Z,99.90
2023-04-01T23:28:54.150Z,99.90
2023-04-01T23:31:31.452Z,99.90
2023-04-01T23:34:12.094Z,99.90
2023-04-01T23:36:48.737Z,99.90
2023-04-01T23:39:27.570Z,99.90
2023-04-01T23:41:59.887Z,99.90
2023-04-01T23:44:28.935Z,99.90
2023-04-01T23:46:56.921Z,99.90
2023-04-01T23:49:30.960Z,99.90
2023-04-01T23:52:09.712Z,99.90
2023-04-01T23:54:48.170Z,99.90
2023-04-01T23:57:19.394Z,99.90
